createdAt,value
2019-05-19T00:03:27.129Z,5.97
2019-05-19T00:07:29.046Z,5.97
2019-05-19T00:11:31.049Z,5.60
2019-05-19T00:15:33.006Z,4.17
2019-05-19T00:19:34.920Z,5.27
2019-05-19T00:23:36.808Z,6.47
2019-05-19T00:27:38.699Z,9.70
2019-05-19T00:31:40.681Z,9.23
2019-05-19T00:35:42.637Z,8.47
2019-05-19T00:39:45.503Z,8.80
2019-05-19T00:43:47.410Z,4.97
2019-05-19T00:47:49.297Z,6.40
2019-05-19T00:51:51.336Z,5.67
2019-05-19T00:55:54.557Z,6.90
2019-05-19T00:59:57.160Z,8.13
2019-05-19T01:03:59.109Z,6.63
2019-05-19T01:08:01.757Z,6.30
2019-05-19T01:12:03.717Z,7.37
2019-05-19T01:16:05.774Z,6.67
2019-05-19T01:20:08.833Z,10.78
2019-05-19T01:24:10.756Z,5.12
2019-05-19T01:28:12.698Z,7.73
2019-05-19T01:32:14.616Z,9.63
2019-05-19T01:36:16.645Z,7.55
2019-05-19T01:40:18.644Z,10.87
2019-05-19T01:44:20.598Z,7.67
2019-05-19T01:48:23.116Z,12.47
2019-05-19T01:52:25.125Z,10.33
2019-05-19T01:56:27.054Z,9.30
2019-05-19T02:00:28.946Z,9.53
2019-05-19T02:04:30.827Z,6.90
2019-05-19T02:08:33.456Z,7.63
2019-05-19T02:12:35.360Z,8.00
2019-05-19T02:16:37.272Z,7.87
2019-05-19T02:20:39.189Z,10.47
2019-05-19T02:24:42.376Z,9.57
2019-05-19T02:28:44.285Z,12.83
2019-05-19T02:32:46.201Z,8.37
2019-05-19T02:36:48.144Z,10.50
2019-05-19T02:40:54.632Z,9.13
2019-05-19T02:44:59.884Z,11.07
2019-05-19T02:49:04.609Z,15.33
2019-05-19T02:53:08.922Z,8.73
2019-05-19T02:57:11.559Z,9.20
2019-05-19T03:01:14.386Z,14.33
2019-05-19T03:05:16.688Z,14.55
2019-05-19T03:09:19.150Z,10.48
2019-05-19T03:13:21.039Z,10.95
2019-05-19T03:17:22.952Z,11.80
2019-05-19T03:21:24.860Z,16.70
2019-05-19T03:25:30.417Z,11.68
2019-05-19T03:29:37.667Z,9.77
2019-05-19T03:33:49.717Z,10.03
2019-05-19T03:37:51.647Z,12.40
2019-05-19T03:41:53.493Z,11.37
2019-05-19T03:45:55.415Z,13.80
2019-05-19T03:49:57.846Z,11.80
2019-05-19T03:53:59.856Z,15.60
2019-05-19T03:58:01.765Z,10.10
2019-05-19T04:02:04.439Z,10.53
2019-05-19T04:06:06.397Z,16.60
2019-05-19T04:10:09.873Z,17.23
2019-05-19T04:14:11.790Z,19.27
2019-05-19T04:18:14.772Z,18.57
2019-05-19T04:22:16.683Z,15.50
2019-05-19T04:26:18.585Z,13.95
2019-05-19T04:30:20.727Z,18.67
2019-05-19T04:34:22.626Z,15.73
2019-05-19T04:38:24.528Z,18.50
2019-05-19T04:42:26.454Z,19.97
2019-05-19T04:46:28.355Z,22.00
2019-05-19T04:50:30.261Z,18.27
2019-05-19T04:54:32.178Z,26.83
2019-05-19T04:58:34.191Z,21.13
2019-05-19T05:02:36.404Z,26.77
2019-05-19T05:06:38.644Z,27.13
2019-05-19T05:10:40.559Z,26.43
2019-05-19T05:14:42.940Z,26.57
2019-05-19T05:18:47.726Z,32.90
2019-05-19T05:22:48.596Z,26.43
2019-05-19T05:26:50.513Z,35.03
2019-05-19T05:30:52.455Z,43.10
2019-05-19T05:34:54.363Z,42.77
2019-05-19T05:38:56.364Z,46.87
2019-05-19T05:42:58.299Z,40.07
2019-05-19T05:47:00.189Z,46.70
2019-05-19T05:51:02.112Z,43.27
2019-05-19T05:55:04.778Z,47.77
2019-05-19T05:59:06.690Z,39.90
2019-05-19T06:03:08.678Z,41.30
2019-05-19T06:07:10.626Z,41.53
2019-05-19T06:11:14.138Z,37.70
2019-05-19T06:15:16.894Z,40.10
2019-05-19T06:19:18.906Z,41.33
2019-05-19T06:23:21.337Z,38.80
2019-05-19T06:27:23.309Z,36.80
2019-05-19T06:31:25.366Z,34.70
2019-05-19T06:35:27.319Z,39.37
2019-05-19T06:39:29.240Z,35.90
2019-05-19T06:43:31.271Z,42.20
2019-05-19T06:47:33.160Z,35.27
2019-05-19T06:51:35.859Z,36.57
2019-05-19T06:55:37.799Z,36.20
2019-05-19T06:59:39.718Z,39.00
2019-05-19T07:03:41.687Z,35.70
2019-05-19T07:07:43.609Z,28.07
2019-05-19T07:11:45.520Z,34.07
2019-05-19T07:15:47.530Z,33.20
2019-05-19T07:19:49.450Z,34.23
2019-05-19T07:23:51.389Z,29.67
2019-05-19T07:27:53.308Z,28.20
2019-05-19T07:31:55.235Z,30.33
2019-05-19T07:36:04.776Z,30.03
2019-05-19T07:40:07.407Z,28.70
2019-05-19T07:44:10.414Z,28.73
2019-05-19T07:48:12.437Z,30.17
2019-05-19T07:52:14.368Z,29.73
2019-05-19T07:56:16.302Z,29.52
2019-05-19T08:00:18.367Z,26.70
2019-05-19T08:04:20.285Z,25.77
2019-05-19T08:08:22.254Z,24.87
2019-05-19T08:12:24.182Z,20.23
2019-05-19T08:16:26.109Z,23.33
2019-05-19T08:20:28.033Z,22.13
2019-05-19T08:24:30.009Z,20.67
2019-05-19T08:28:31.930Z,14.73
2019-05-19T08:32:33.840Z,17.67
2019-05-19T08:36:35.778Z,23.00
2019-05-19T08:40:37.801Z,22.70
2019-05-19T08:44:39.776Z,22.33
2019-05-19T08:48:41.701Z,21.83
2019-05-19T08:52:43.614Z,22.83
2019-05-19T08:56:45.585Z,22.33
2019-05-19T09:00:47.506Z,22.17
2019-05-19T09:04:49.434Z,21.57
2019-05-19T09:08:51.471Z,22.83
2019-05-19T09:12:53.462Z,22.83
2019-05-19T09:16:55.761Z,21.43
2019-05-19T09:20:57.677Z,20.27
2019-05-19T09:24:59.601Z,18.73
2019-05-19T09:29:01.894Z,19.47
2019-05-19T09:33:04.341Z,20.93
2019-05-19T09:37:06.236Z,16.90
2019-05-19T09:41:08.172Z,17.25
2019-05-19T09:45:10.707Z,17.32
2019-05-19T09:49:29.783Z,18.03
2019-05-19T09:53:31.689Z,16.33
2019-05-19T09:57:33.789Z,16.32
2019-05-19T10:01:35.705Z,17.82
2019-05-19T10:05:37.654Z,18.02
2019-05-19T10:09:50.900Z,15.95
2019-05-19T10:13:52.830Z,17.98
2019-05-19T10:17:54.756Z,16.32
2019-05-19T10:21:56.736Z,12.58
2019-05-19T10:25:58.685Z,14.10
2019-05-19T10:30:00.636Z,19.27
2019-05-19T10:34:02.525Z,13.90
2019-05-19T10:38:04.448Z,15.98
2019-05-19T10:42:06.702Z,13.28
2019-05-19T10:46:08.797Z,12.34
2019-05-19T10:50:11.662Z,12.37
2019-05-19T10:54:13.652Z,13.28
2019-05-19T10:58:15.623Z,11.50
2019-05-19T11:02:17.554Z,12.43
2019-05-19T11:06:19.486Z,12.20
2019-05-19T11:10:22.442Z,10.78
2019-05-19T11:14:24.431Z,12.73
2019-05-19T11:18:26.350Z,11.28
2019-05-19T11:22:28.766Z,12.63
2019-05-19T11:26:30.682Z,12.20
2019-05-19T11:30:32.625Z,11.15
2019-05-19T11:34:34.535Z,11.70
2019-05-19T11:38:36.520Z,10.93
2019-05-19T11:42:38.418Z,11.10
2019-05-19T11:46:40.436Z,10.75
2019-05-19T11:50:42.511Z,12.90
2019-05-19T11:54:44.544Z,9.45
2019-05-19T11:58:46.580Z,10.15
2019-05-19T12:02:49.340Z,8.08
2019-05-19T12:06:51.249Z,9.05
2019-05-19T12:10:53.184Z,9.78
2019-05-19T12:14:55.095Z,10.20
2019-05-19T12:18:57.666Z,9.60
2019-05-19T12:22:59.635Z,9.38
2019-05-19T12:27:01.661Z,10.00
2019-05-19T12:31:04.415Z,10.78
2019-05-19T12:35:09.540Z,10.68
2019-05-19T12:39:11.452Z,9.70
2019-05-19T12:43:13.395Z,10.83
2019-05-19T12:47:15.325Z,11.17
2019-05-19T12:51:17.373Z,10.03
2019-05-19T12:55:19.695Z,8.50
2019-05-19T12:59:21.686Z,9.40
2019-05-19T13:03:23.608Z,9.65
2019-05-19T13:07:25.552Z,10.30
2019-05-19T13:11:27.472Z,9.35
2019-05-19T13:15:29.406Z,8.68
2019-05-19T13:19:35.060Z,8.65
2019-05-19T13:23:37.509Z,8.70
2019-05-19T13:27:39.485Z,9.58
2019-05-19T13:31:43.357Z,10.03
2019-05-19T13:35:45.226Z,9.35
2019-05-19T13:39:47.432Z,9.23
2019-05-19T13:43:49.335Z,8.75
2019-05-19T13:47:51.249Z,11.57
2019-05-19T13:51:53.218Z,9.43
2019-05-19T13:55:55.182Z,10.38
2019-05-19T13:59:57.153Z,9.00
2019-05-19T14:04:00.147Z,10.48
2019-05-19T14:08:02.077Z,10.88
2019-05-19T14:12:04.442Z,11.93
2019-05-19T14:16:06.352Z,9.85
2019-05-19T14:20:09.533Z,9.88
2019-05-19T14:24:11.443Z,10.47
2019-05-19T14:28:13.507Z,9.80
2019-05-19T14:32:15.450Z,9.53
2019-05-19T14:36:17.378Z,9.93
2019-05-19T14:40:19.778Z,8.73
2019-05-19T14:44:21.709Z,11.55
2019-05-19T14:48:23.639Z,11.75
2019-05-19T14:52:25.571Z,10.23
2019-05-19T14:56:27.491Z,10.27
2019-05-19T15:00:29.412Z,9.45
2019-05-19T15:04:31.376Z,9.65
2019-05-19T15:08:33.340Z,10.08
2019-05-19T15:12:35.395Z,8.48
2019-05-19T15:16:37.332Z,7.75
2019-05-19T15:20:39.296Z,9.08
2019-05-19T15:24:41.404Z,8.85
2019-05-19T15:28:43.901Z,9.83
2019-05-19T15:32:45.859Z,10.65
2019-05-19T15:36:47.776Z,10.45
2019-05-19T15:40:49.720Z,8.93
2019-05-19T15:44:51.626Z,9.08
2019-05-19T15:48:53.552Z,8.83
2019-05-19T15:52:55.451Z,9.60
2019-05-19T15:56:57.395Z,7.45
2019-05-19T16:00:59.306Z,9.05
2019-05-19T16:05:01.811Z,9.00
2019-05-19T16:09:06.881Z,8.58
2019-05-19T16:13:09.065Z,8.50
2019-05-19T16:17:11.217Z,15.70
2019-05-19T16:21:13.127Z,9.33
2019-05-19T16:25:15.575Z,13.73
2019-05-19T16:29:18.559Z,10.32
2019-05-19T16:33:20.494Z,10.63
2019-05-19T16:37:22.435Z,10.30
2019-05-19T16:41:24.324Z,8.08
2019-05-19T16:45:26.234Z,8.80
2019-05-19T16:49:28.141Z,8.48
2019-05-19T16:53:30.240Z,12.82
2019-05-19T16:57:32.181Z,9.55
2019-05-19T17:01:34.132Z,9.58
2019-05-19T17:05:37.379Z,7.53
2019-05-19T17:09:39.407Z,8.58
2019-05-19T17:13:41.385Z,9.63
2019-05-19T17:17:43.379Z,9.60
2019-05-19T17:21:45.352Z,8.18
2019-05-19T17:25:47.267Z,8.78
2019-05-19T17:29:49.172Z,7.42
2019-05-19T17:33:51.104Z,8.08
2019-05-19T17:37:53.008Z,7.80
2019-05-19T17:41:55.016Z,7.83
2019-05-19T17:45:56.998Z,10.53
2019-05-19T17:49:58.972Z,9.48
2019-05-19T17:54:01.580Z,7.85
2019-05-19T17:58:04.478Z,12.07
2019-05-19T18:02:06.411Z,8.00
2019-05-19T18:06:09.312Z,7.70
2019-05-19T18:10:11.386Z,9.33
2019-05-19T18:14:13.401Z,5.83
2019-05-19T18:18:15.319Z,6.72
2019-05-19T18:22:17.212Z,5.83
2019-05-19T18:26:19.185Z,5.47
2019-05-19T18:30:21.172Z,6.20
2019-05-19T18:34:23.082Z,4.93
2019-05-19T18:38:25.010Z,4.33
2019-05-19T18:42:26.936Z,4.37
2019-05-19T18:46:28.938Z,4.70
2019-05-19T18:50:30.858Z,5.50
2019-05-19T18:54:33.721Z,4.77
2019-05-19T18:58:35.646Z,5.10
2019-05-19T19:02:37.836Z,5.23
2019-05-19T19:06:39.747Z,4.17
2019-05-19T19:10:41.672Z,5.63
2019-05-19T19:14:43.563Z,6.90
2019-05-19T19:18:45.486Z,10.47
2019-05-19T19:22:47.481Z,5.77
2019-05-19T19:26:49.396Z,4.27
2019-05-19T19:30:51.306Z,5.03
2019-05-19T19:34:53.203Z,5.67
2019-05-19T19:38:55.147Z,4.87
2019-05-19T19:42:58.049Z,4.87
2019-05-19T19:46:59.971Z,6.27
2019-05-19T19:51:02.230Z,5.80
2019-05-19T19:55:07.220Z,7.37
2019-05-19T19:59:09.185Z,6.83
2019-05-19T20:03:11.793Z,5.25
2019-05-19T20:07:15.339Z,6.45
2019-05-19T20:11:17.467Z,6.30
2019-05-19T20:15:19.393Z,5.42
2019-05-19T20:19:21.474Z,6.45
2019-05-19T20:23:23.490Z,4.23
2019-05-19T20:27:25.556Z,4.50
2019-05-19T20:31:27.460Z,5.43
2019-05-19T20:35:29.395Z,5.47
2019-05-19T20:39:31.316Z,4.57
2019-05-19T20:43:33.336Z,9.03
2019-05-19T20:47:35.236Z,5.93
2019-05-19T20:51:37.211Z,5.73
2019-05-19T20:55:39.147Z,5.47
2019-05-19T20:59:41.075Z,13.33
2019-05-19T21:03:42.984Z,10.30
2019-05-19T21:07:44.910Z,8.30
2019-05-19T21:11:46.826Z,7.23
2019-05-19T21:15:48.846Z,8.87
2019-05-19T21:19:50.743Z,7.23
2019-05-19T21:23:52.730Z,9.43
2019-05-19T21:27:54.661Z,8.50
2019-05-19T21:31:56.550Z,11.37
2019-05-19T21:35:58.468Z,8.13
2019-05-19T21:40:00.381Z,6.13
2019-05-19T21:44:02.576Z,9.27
2019-05-19T21:48:05.543Z,7.42
2019-05-19T21:52:07.535Z,7.45
2019-05-19T21:56:09.454Z,9.87
2019-05-19T22:00:12.781Z,7.45
2019-05-19T22:04:16.281Z,7.83
2019-05-19T22:08:18.774Z,6.87
2019-05-19T22:12:20.695Z,9.08
2019-05-19T22:16:22.602Z,9.03
2019-05-19T22:20:24.533Z,10.13
2019-05-19T22:24:26.442Z,8.30
2019-05-19T22:28:28.369Z,8.97
2019-05-19T22:32:30.284Z,8.80
2019-05-19T22:36:32.251Z,10.90
2019-05-19T22:40:34.176Z,7.57
2019-05-19T22:44:36.105Z,8.60
2019-05-19T22:48:38.018Z,13.83
2019-05-19T22:52:39.989Z,8.73
2019-05-19T22:56:41.977Z,15.03
2019-05-19T23:00:43.917Z,11.50
2019-05-19T23:04:45.801Z,11.17
2019-05-19T23:08:47.794Z,9.00
2019-05-19T23:12:49.701Z,10.40
2019-05-19T23:16:51.636Z,12.53
2019-05-19T23:20:53.625Z,7.73
2019-05-19T23:24:55.614Z,7.97
2019-05-19T23:28:57.529Z,12.13
2019-05-19T23:32:59.456Z,10.60
2019-05-19T23:37:01.397Z,11.50
2019-05-19T23:41:03.375Z,9.23
2019-05-19T23:45:10.106Z,7.77
2019-05-19T23:49:12.026Z,11.30
2019-05-19T23:53:13.948Z,12.17
2019-05-19T23:57:15.865Z,9.88
